Terminal Aerodrome Forecast
Issued by NWS

Home | Current Version | Previous Version | Graphics & Text | Print | Product List | Glossary On
Versions: 1 2 3 4 5 6 7 8 9 10 11 12 13 14 15 16 17 18 19 20 21
204
FTUS43 KIWX 230535
TAFSBN
TAF
KSBN 230535Z 2306/2406 00000KT 6SM BR SCT250
     FM230800 00000KT 2SM BR SCT008
      TEMPO 2309/2312 1/2SM FG BKN008
     FM231300 00000KT 3SM BR SCT008 BKN025
     FM231500 22004KT P6SM SCT040
     FM232300 VRB03KT P6SM SCT250=

USA.gov is the U.S. government's official web portal to all federal, state and local government web resources and services.